createdAt,value
2018-10-09T00:03:19.791Z,99650.73
2018-10-09T00:06:42.282Z,99648.55
2018-10-09T00:10:04.853Z,99657.88
2018-10-09T00:13:27.404Z,99662.61
2018-10-09T00:16:49.861Z,99673.97
2018-10-09T00:20:16.843Z,99656.44
2018-10-09T00:23:39.321Z,99658.37
2018-10-09T00:27:01.821Z,99649.91
2018-10-09T00:30:25.105Z,99657.00
2018-10-09T00:33:47.643Z,99657.52
2018-10-09T00:37:10.077Z,99660.19
2018-10-09T00:40:32.528Z,99660.19
2018-10-09T00:43:55.010Z,99652.47
2018-10-09T00:51:43.476Z,99654.59
2018-10-09T00:55:06.269Z,99651.95
2018-10-09T00:58:28.779Z,99646.94
2018-10-09T01:01:51.222Z,99649.77
2018-10-09T01:05:13.770Z,99647.09
2018-10-09T01:08:36.965Z,99644.17
2018-10-09T01:11:59.498Z,99624.39
2018-10-09T01:15:22.039Z,99622.88
2018-10-09T01:18:46.531Z,99631.64
2018-10-09T01:22:12.559Z,99629.47
2018-10-09T01:25:36.110Z,99637.23
2018-10-09T01:28:58.581Z,99643.69
2018-10-09T01:32:21.028Z,99645.92
2018-10-09T01:35:43.373Z,99646.98
2018-10-09T01:39:07.094Z,99636.45
2018-10-09T01:42:29.472Z,99646.78
2018-10-09T01:45:51.858Z,99635.87
2018-10-09T01:49:14.387Z,99631.70
2018-10-09T01:52:36.801Z,99630.14
2018-10-09T01:55:59.391Z,99622.45
2018-10-09T01:59:21.918Z,99619.24
2018-10-09T02:02:44.610Z,99611.41
2018-10-09T02:06:12.302Z,99604.50
2018-10-09T02:09:35.330Z,99600.56
2018-10-09T02:12:57.774Z,99600.69
2018-10-09T02:16:20.203Z,99603.39
2018-10-09T02:19:42.606Z,99595.48
2018-10-09T02:23:05.009Z,99593.05
2018-10-09T02:26:27.449Z,99589.02
2018-10-09T02:29:49.860Z,99583.91
2018-10-09T02:33:12.286Z,99587.27
2018-10-09T02:36:34.818Z,99579.65
2018-10-09T02:39:57.487Z,99584.23
2018-10-09T02:43:20.009Z,99573.16
2018-10-09T02:46:42.458Z,99577.53
2018-10-09T02:50:05.598Z,99578.42
2018-10-09T02:53:28.068Z,99580.33
2018-10-09T02:56:50.605Z,99584.77
2018-10-09T03:00:13.117Z,99602.45
2018-10-09T03:03:40.817Z,99616.06
2018-10-09T03:07:04.643Z,99619.34
2018-10-09T03:10:31.237Z,99618.16
2018-10-09T03:13:55.064Z,99618.69
2018-10-09T03:17:18.076Z,99613.84
2018-10-09T03:21:11.836Z,99616.51
2018-10-09T03:24:35.917Z,99621.69
2018-10-09T03:27:58.962Z,99623.91
2018-10-09T03:31:22.121Z,99625.55
2018-10-09T03:34:45.541Z,99625.06
2018-10-09T03:38:09.601Z,99622.24
2018-10-09T03:41:38.608Z,99622.58
2018-10-09T03:45:01.618Z,99617.30
2018-10-09T03:48:24.106Z,99610.72
2018-10-09T03:51:46.854Z,99620.87
2018-10-09T03:55:09.305Z,99624.02
2018-10-09T03:58:31.792Z,99620.24
2018-10-09T04:01:54.300Z,99625.23
2018-10-09T04:05:16.860Z,99614.43
2018-10-09T04:08:39.381Z,99618.57
2018-10-09T04:12:01.774Z,99615.66
2018-10-09T04:15:24.286Z,99614.22
2018-10-09T04:18:46.683Z,99613.15
2018-10-09T04:22:13.765Z,99614.04
2018-10-09T04:25:36.201Z,99608.35
2018-10-09T04:28:58.654Z,99609.39
2018-10-09T04:32:21.249Z,99601.59
2018-10-09T04:35:43.801Z,99602.34
2018-10-09T04:39:07.578Z,99596.89
2018-10-09T04:42:30.077Z,99587.50
2018-10-09T04:45:52.509Z,99575.27
2018-10-09T04:49:15.066Z,99565.58
2018-10-09T04:52:38.522Z,99573.75
2018-10-09T04:56:01.005Z,99564.69
2018-10-09T04:59:23.419Z,99573.34
2018-10-09T05:02:45.908Z,99575.67
2018-10-09T05:06:08.359Z,99582.00
2018-10-09T05:09:30.875Z,99579.12
2018-10-09T05:12:53.305Z,99585.80
2018-10-09T05:16:15.926Z,99580.64
2018-10-09T05:20:09.905Z,99577.33
2018-10-09T05:23:32.313Z,99586.96
2018-10-09T05:26:54.777Z,99585.97
2018-10-09T05:30:17.279Z,99592.00
2018-10-09T05:33:39.625Z,99583.22
2018-10-09T05:37:02.024Z,99590.47
2018-10-09T05:40:24.502Z,99599.73
2018-10-09T05:43:46.917Z,99605.51
2018-10-09T05:47:10.375Z,99620.31
2018-10-09T05:50:33.926Z,99618.45
2018-10-09T05:53:56.550Z,99625.84
2018-10-09T05:57:19.048Z,99624.34
2018-10-09T06:00:41.554Z,99616.27
2018-10-09T06:04:04.308Z,99620.75
2018-10-09T06:07:32.568Z,99637.01
2018-10-09T06:10:56.001Z,99635.05
2018-10-09T06:14:18.580Z,99635.14
2018-10-09T06:17:41.194Z,99640.33
2018-10-09T06:21:03.730Z,99634.50
2018-10-09T06:24:27.569Z,99639.18
2018-10-09T06:27:50.171Z,99641.90
2018-10-09T06:31:12.660Z,99646.72
2018-10-09T06:34:35.246Z,99650.61
2018-10-09T06:37:57.731Z,99659.31
2018-10-09T06:41:20.208Z,99655.99
2018-10-09T06:44:42.675Z,99667.58
2018-10-09T06:48:05.390Z,99664.80
2018-10-09T06:51:27.798Z,99663.18
2018-10-09T06:54:50.298Z,99667.58
2018-10-09T06:58:12.715Z,99673.11
2018-10-09T07:01:35.232Z,99688.28
2018-10-09T07:04:57.642Z,99683.47
2018-10-09T07:08:20.236Z,99687.64
2018-10-09T07:11:42.830Z,99691.70
2018-10-09T07:15:05.278Z,99698.36
2018-10-09T07:18:27.850Z,99704.30
2018-10-09T07:21:50.451Z,99706.52
2018-10-09T07:25:12.879Z,99714.17
2018-10-09T07:28:35.350Z,99720.08
2018-10-09T07:31:57.732Z,99718.77
2018-10-09T07:35:20.103Z,99724.83
2018-10-09T07:38:42.616Z,99729.31
2018-10-09T07:42:05.270Z,99734.79
2018-10-09T07:45:27.729Z,99742.68
2018-10-09T07:48:51.186Z,99742.34
2018-10-09T07:52:14.048Z,99744.88
2018-10-09T07:55:36.695Z,99749.65
2018-10-09T07:58:59.325Z,99751.14
2018-10-09T08:02:21.826Z,99755.40
2018-10-09T08:05:44.219Z,99759.73
2018-10-09T08:09:08.854Z,99759.94
2018-10-09T08:12:31.609Z,99760.80
2018-10-09T08:15:54.216Z,99754.15
2018-10-09T08:19:17.347Z,99762.42
2018-10-09T08:22:39.951Z,99763.35
2018-10-09T08:26:02.790Z,99764.82
2018-10-09T08:29:25.253Z,99755.81
2018-10-09T08:32:47.875Z,99752.52
2018-10-09T08:36:10.574Z,99753.48
2018-10-09T08:39:33.071Z,99754.50
2018-10-09T08:42:55.665Z,99765.57
2018-10-09T08:46:18.263Z,99767.48
2018-10-09T08:49:40.769Z,99759.41
2018-10-09T08:53:03.217Z,99758.02
2018-10-09T08:56:25.700Z,99765.96
2018-10-09T08:59:48.069Z,99766.66
2018-10-09T09:03:10.522Z,99763.17
2018-10-09T09:06:33.025Z,99759.66
2018-10-09T09:09:55.652Z,99758.94
2018-10-09T09:13:18.180Z,99764.92
2018-10-09T09:16:40.661Z,99764.84
2018-10-09T09:20:03.185Z,99761.61
2018-10-09T09:23:25.589Z,99767.11
2018-10-09T09:26:48.164Z,99764.73
2018-10-09T09:30:10.623Z,99766.64
2018-10-09T09:33:33.102Z,99765.23
2018-10-09T09:36:55.645Z,99751.20
2018-10-09T09:40:18.148Z,99744.96
2018-10-09T09:43:40.577Z,99747.32
2018-10-09T09:47:03.052Z,99738.23
2018-10-09T09:50:25.445Z,99729.60
2018-10-09T09:53:48.019Z,99731.53
2018-10-09T09:57:10.475Z,99723.70
2018-10-09T10:00:38.613Z,99723.05
2018-10-09T10:04:01.147Z,99725.74
2018-10-09T10:07:23.607Z,99729.34
2018-10-09T10:10:46.051Z,99724.11
2018-10-09T10:14:08.672Z,99722.79
2018-10-09T10:17:31.129Z,99730.54
2018-10-09T10:20:53.680Z,99735.06
2018-10-09T10:24:16.262Z,99735.66
2018-10-09T10:27:38.845Z,99737.44
2018-10-09T10:31:01.399Z,99729.30
2018-10-09T10:34:23.792Z,99722.34
2018-10-09T10:37:46.483Z,99731.95
2018-10-09T10:41:09.134Z,99725.28
2018-10-09T10:44:31.571Z,99720.27
2018-10-09T10:47:53.994Z,99713.09
2018-10-09T10:51:16.595Z,99716.56
2018-10-09T10:54:39.112Z,99712.34
2018-10-09T10:58:01.622Z,99713.58
2018-10-09T11:01:24.076Z,99708.16
2018-10-09T11:04:46.523Z,99705.78
2018-10-09T11:08:08.997Z,99702.75
2018-10-09T11:11:31.376Z,99698.02
2018-10-09T11:14:53.830Z,99699.98
2018-10-09T11:18:16.298Z,99696.03
2018-10-09T11:21:38.723Z,99689.07
2018-10-09T11:25:01.253Z,99682.04
2018-10-09T11:28:23.638Z,99690.91
2018-10-09T11:31:46.023Z,99689.61
2018-10-09T11:35:08.523Z,99691.85
2018-10-09T11:38:31.086Z,99680.25
2018-10-09T11:41:53.724Z,99670.61
2018-10-09T11:45:16.261Z,99674.09
2018-10-09T11:48:38.649Z,99663.57
2018-10-09T11:52:01.159Z,99657.45
2018-10-09T11:55:23.635Z,99656.77
2018-10-09T11:58:46.285Z,99654.29
2018-10-09T12:02:08.612Z,99647.00
2018-10-09T12:05:31.095Z,99641.86
2018-10-09T12:08:53.445Z,99639.14
2018-10-09T12:12:15.954Z,99634.42
2018-10-09T12:15:38.521Z,99635.39
2018-10-09T12:19:00.991Z,99630.00
2018-10-09T12:22:23.463Z,99625.30
2018-10-09T12:25:45.930Z,99622.80
2018-10-09T12:29:08.358Z,99621.73
2018-10-09T12:32:30.824Z,99621.88
2018-10-09T12:35:53.276Z,99618.05
2018-10-09T12:39:15.896Z,99617.93
2018-10-09T12:42:38.392Z,99612.73
2018-10-09T12:46:00.801Z,99615.33
2018-10-09T12:49:23.218Z,99612.94
2018-10-09T12:52:45.601Z,99614.06
2018-10-09T12:56:09.025Z,99601.36
2018-10-09T12:59:31.485Z,99591.81
2018-10-09T13:02:53.859Z,99595.08
2018-10-09T13:06:16.254Z,99592.81
2018-10-09T13:09:38.724Z,99591.01
2018-10-09T13:13:01.215Z,99586.11
2018-10-09T13:16:23.688Z,99574.21
2018-10-09T13:19:48.076Z,99580.78
2018-10-09T13:23:11.688Z,99579.31
2018-10-09T13:26:34.183Z,99574.49
2018-10-09T13:29:58.617Z,99569.41
2018-10-09T13:33:21.036Z,99576.52
2018-10-09T13:36:43.470Z,99571.22
2018-10-09T13:40:07.896Z,99559.45
2018-10-09T13:43:32.368Z,99547.45
2018-10-09T13:47:12.888Z,99549.93
2018-10-09T13:50:35.282Z,99547.47
2018-10-09T13:53:57.581Z,99542.02
2018-10-09T13:57:20.170Z,99544.69
2018-10-09T14:00:42.639Z,99544.31
2018-10-09T14:04:05.182Z,99537.53
2018-10-09T14:07:29.093Z,99534.34
2018-10-09T14:10:51.689Z,99528.77
2018-10-09T14:14:14.157Z,99529.16
2018-10-09T14:17:36.473Z,99522.91
2018-10-09T14:20:58.852Z,99518.33
2018-10-09T14:24:21.246Z,99519.69
2018-10-09T14:27:43.577Z,99517.83
2018-10-09T14:31:06.184Z,99508.45
2018-10-09T14:34:28.448Z,99498.48
2018-10-09T14:37:50.749Z,99492.55
2018-10-09T14:41:13.235Z,99498.98
2018-10-09T14:44:35.591Z,99497.56
2018-10-09T14:47:58.042Z,99504.97
2018-10-09T14:51:20.453Z,99492.52
2018-10-09T14:54:42.872Z,99491.57
2018-10-09T14:58:05.319Z,99488.34
2018-10-09T15:01:27.761Z,99491.89
2018-10-09T15:04:50.216Z,99492.98
2018-10-09T15:08:12.778Z,99508.45
2018-10-09T15:11:35.141Z,99509.71
2018-10-09T15:14:57.673Z,99507.36
2018-10-09T15:18:20.103Z,99503.02
2018-10-09T15:21:42.492Z,99501.57
2018-10-09T15:25:04.877Z,99503.47
2018-10-09T15:28:27.196Z,99510.27
2018-10-09T15:31:49.633Z,99509.94
2018-10-09T15:35:12.020Z,99507.95
2018-10-09T15:38:34.389Z,99506.59
2018-10-09T15:41:57.737Z,99511.31
2018-10-09T15:45:21.100Z,99515.30
2018-10-09T15:48:44.379Z,99516.28
2018-10-09T15:52:06.768Z,99511.15
2018-10-09T15:55:31.140Z,99507.44
2018-10-09T15:58:53.673Z,99505.00
2018-10-09T16:02:16.215Z,99509.97
2018-10-09T16:05:38.595Z,99506.97
2018-10-09T16:09:02.040Z,99510.69
2018-10-09T16:12:24.460Z,99515.07
2018-10-09T16:15:46.881Z,99518.23
2018-10-09T16:19:09.377Z,99515.70
2018-10-09T16:22:36.033Z,99520.81
2018-10-09T16:25:58.322Z,99525.73
2018-10-09T16:29:20.708Z,99530.86
2018-10-09T16:32:43.318Z,99527.69
2018-10-09T16:36:05.601Z,99530.30
2018-10-09T16:39:28.012Z,99529.42
2018-10-09T16:42:50.389Z,99522.77
2018-10-09T16:46:12.702Z,99527.32
2018-10-09T16:49:36.721Z,99538.50
2018-10-09T16:52:59.054Z,99545.33
2018-10-09T16:56:21.531Z,99554.89
2018-10-09T16:59:44.048Z,99549.01
2018-10-09T17:03:06.396Z,99547.96
2018-10-09T17:06:28.857Z,99551.00
2018-10-09T17:09:51.177Z,99551.78
2018-10-09T17:13:13.667Z,99556.49
2018-10-09T17:16:36.324Z,99558.84
2018-10-09T17:19:59.082Z,99560.59
2018-10-09T17:23:21.718Z,99569.92
2018-10-09T17:26:44.185Z,99570.20
2018-10-09T17:30:08.761Z,99567.52
2018-10-09T17:33:33.263Z,99575.78
2018-10-09T17:36:57.696Z,99577.56
2018-10-09T17:40:24.128Z,99577.33
2018-10-09T17:43:49.691Z,99581.34
2018-10-09T17:47:12.059Z,99580.53
2018-10-09T17:50:38.698Z,99579.46
2018-10-09T17:54:01.323Z,99580.41
2018-10-09T17:57:23.853Z,99591.83
2018-10-09T18:00:46.419Z,99595.10
2018-10-09T18:04:10.033Z,99601.52
2018-10-09T18:07:32.496Z,99598.27
2018-10-09T18:10:57.424Z,99598.25
2018-10-09T18:14:19.937Z,99597.36
2018-10-09T18:17:43.821Z,99601.94
2018-10-09T18:21:06.325Z,99598.20
2018-10-09T18:24:28.781Z,99601.03
2018-10-09T18:27:52.315Z,99604.03
2018-10-09T18:31:14.946Z,99606.63
2018-10-09T18:34:37.385Z,99609.58
2018-10-09T18:38:03.986Z,99614.64
2018-10-09T18:41:26.656Z,99607.72
2018-10-09T18:44:51.682Z,99609.01
2018-10-09T18:48:14.222Z,99605.34
2018-10-09T18:51:36.906Z,99602.75
2018-10-09T18:55:00.445Z,99602.39
2018-10-09T18:58:27.215Z,99606.94
2018-10-09T19:01:50.229Z,99610.45
2018-10-09T19:05:12.707Z,99605.33
2018-10-09T19:08:37.418Z,99605.98
2018-10-09T19:12:01.033Z,99609.29
2018-10-09T19:15:24.515Z,99608.25
2018-10-09T19:18:47.182Z,99606.52
2018-10-09T19:22:09.601Z,99606.66
2018-10-09T19:25:32.046Z,99610.70
2018-10-09T19:28:54.544Z,99612.33
2018-10-09T19:32:16.989Z,99610.06
2018-10-09T19:35:41.045Z,99611.77
2018-10-09T19:39:05.774Z,99616.74
2018-10-09T19:42:28.120Z,99612.38
2018-10-09T19:45:50.616Z,99613.23
2018-10-09T19:49:12.932Z,99610.77
2018-10-09T19:52:35.860Z,99610.86
2018-10-09T19:55:58.517Z,99608.52
2018-10-09T19:59:21.006Z,99609.36
2018-10-09T20:02:43.407Z,99618.83
2018-10-09T20:06:06.117Z,99616.56
2018-10-09T20:09:28.535Z,99614.75
2018-10-09T20:12:50.915Z,99616.28
2018-10-09T20:16:13.533Z,99619.47
2018-10-09T20:19:35.887Z,99613.40
2018-10-09T20:22:58.288Z,99616.05
2018-10-09T20:26:20.876Z,99612.09
2018-10-09T20:29:43.291Z,99617.84
2018-10-09T20:33:05.768Z,99617.02
2018-10-09T20:36:28.163Z,99620.95
2018-10-09T20:39:50.635Z,99618.67
2018-10-09T20:43:13.071Z,99623.91
2018-10-09T20:46:35.472Z,99623.41
2018-10-09T20:49:57.852Z,99626.87
2018-10-09T20:53:20.320Z,99625.56
2018-10-09T20:56:42.788Z,99625.55
2018-10-09T21:00:05.277Z,99621.61
2018-10-09T21:03:28.084Z,99623.92
2018-10-09T21:06:50.529Z,99625.56
2018-10-09T21:10:13.252Z,99624.26
2018-10-09T21:13:35.720Z,99627.86
2018-10-09T21:16:58.928Z,99628.51
2018-10-09T21:20:21.374Z,99623.45
2018-10-09T21:23:44.887Z,99631.12
2018-10-09T21:27:07.318Z,99623.75
2018-10-09T21:30:29.753Z,99631.17
2018-10-09T21:33:52.342Z,99629.72
2018-10-09T21:37:15.876Z,99631.72
2018-10-09T21:40:38.320Z,99629.08
2018-10-09T21:44:00.786Z,99625.47
2018-10-09T21:47:23.185Z,99621.09
2018-10-09T21:50:45.466Z,99619.79
2018-10-09T21:54:07.948Z,99619.00
2018-10-09T21:57:30.425Z,99622.75
2018-10-09T22:00:58.433Z,99617.64
2018-10-09T22:04:20.756Z,99618.63
2018-10-09T22:07:43.143Z,99613.30
2018-10-09T22:11:05.586Z,99616.61
2018-10-09T22:14:28.051Z,99619.13
2018-10-09T22:17:50.533Z,99623.17
2018-10-09T22:21:12.841Z,99619.09
2018-10-09T22:24:35.297Z,99614.98
2018-10-09T22:27:57.707Z,99620.45
2018-10-09T22:31:20.162Z,99617.45
2018-10-09T22:34:42.633Z,99615.59
2018-10-09T22:38:05.151Z,99611.33
2018-10-09T22:41:27.530Z,99612.05
2018-10-09T22:44:49.948Z,99612.39
2018-10-09T22:48:12.410Z,99616.34
2018-10-09T22:51:34.903Z,99613.50
2018-10-09T22:55:12.242Z,99601.41
2018-10-09T22:58:34.533Z,99608.97
2018-10-09T23:01:56.837Z,99605.89
2018-10-09T23:05:19.131Z,99603.63
2018-10-09T23:08:41.619Z,99605.65
2018-10-09T23:12:04.095Z,99609.47
2018-10-09T23:15:26.456Z,99610.56
2018-10-09T23:18:48.881Z,99614.18
2018-10-09T23:22:11.242Z,99610.02
2018-10-09T23:25:33.521Z,99599.69
2018-10-09T23:28:55.807Z,99607.23
2018-10-09T23:32:18.209Z,99596.97
2018-10-09T23:35:40.720Z,99600.38
2018-10-09T23:39:04.069Z,99601.09
2018-10-09T23:42:26.375Z,99601.28
2018-10-09T23:45:48.694Z,99594.73
2018-10-09T23:49:11.893Z,99596.92
2018-10-09T23:52:34.320Z,99594.11
2018-10-09T23:55:56.707Z,99591.83
2018-10-09T23:59:18.998Z,99591.40
